createdAt,value
2019-04-14T00:03:45.440Z,22.87
2019-04-14T00:09:14.172Z,26.33
2019-04-14T00:14:38.943Z,27.97
2019-04-14T00:20:05.380Z,34.53
2019-04-14T00:25:30.280Z,25.00
2019-04-14T00:30:55.582Z,23.53
2019-04-14T00:36:28.418Z,27.80
2019-04-14T00:42:01.594Z,24.83
2019-04-14T00:47:54.755Z,27.17
2019-04-14T00:53:14.243Z,23.93
2019-04-14T00:58:38.943Z,30.97
2019-04-14T01:04:03.462Z,27.67
2019-04-14T01:09:28.472Z,29.03
2019-04-14T01:14:53.894Z,29.50
2019-04-14T01:20:17.406Z,29.03
2019-04-14T01:25:41.628Z,33.60
2019-04-14T01:31:05.560Z,34.87
2019-04-14T01:36:29.834Z,34.67
2019-04-14T01:41:54.391Z,30.73
2019-04-14T01:47:18.790Z,26.60
2019-04-14T01:52:50.131Z,28.47
2019-04-14T01:58:36.113Z,28.17
2019-04-14T02:04:00.594Z,29.67
2019-04-14T02:09:25.211Z,30.13
2019-04-14T02:14:49.518Z,30.43
2019-04-14T02:20:14.239Z,28.00
2019-04-14T02:25:40.675Z,26.90
2019-04-14T02:31:18.156Z,29.73
2019-04-14T02:36:57.123Z,25.93
2019-04-14T02:53:18.401Z,25.37
2019-04-14T03:03:56.772Z,25.37
2019-04-14T03:09:38.217Z,25.60
2019-04-14T03:14:55.599Z,28.27
2019-04-14T03:20:31.853Z,25.03
2019-04-14T03:25:59.220Z,32.17
2019-04-14T03:31:49.595Z,26.77
2019-04-14T03:47:53.187Z,27.43
2019-04-14T03:53:15.899Z,23.40
2019-04-14T03:58:11.513Z,29.03
2019-04-14T04:03:36.842Z,30.57
2019-04-14T04:09:01.903Z,28.83
2019-04-14T04:14:29.103Z,30.40
2019-04-14T04:20:11.736Z,36.03
2019-04-14T04:25:44.588Z,32.33
2019-04-14T04:31:32.826Z,32.00
2019-04-14T04:37:06.067Z,38.70
2019-04-14T04:42:30.771Z,34.47
2019-04-14T04:47:54.210Z,36.77
2019-04-14T04:53:18.755Z,31.53
2019-04-14T04:58:43.495Z,35.60
2019-04-14T05:04:09.029Z,31.57
2019-04-14T05:09:51.368Z,32.83
2019-04-14T05:15:27.626Z,34.17
2019-04-14T05:20:51.297Z,33.53
2019-04-14T05:26:17.815Z,35.40
2019-04-14T05:31:42.578Z,33.93
2019-04-14T05:37:07.216Z,31.93
2019-04-14T05:42:31.890Z,36.60
2019-04-14T05:47:56.529Z,31.47
2019-04-14T05:53:20.080Z,29.90
2019-04-14T05:58:44.640Z,28.60
2019-04-14T06:04:10.023Z,32.77
2019-04-14T06:09:34.388Z,27.73
2019-04-14T06:14:58.058Z,28.13
2019-04-14T06:20:21.454Z,31.73
2019-04-14T06:25:46.186Z,27.87
2019-04-14T06:31:27.841Z,29.80
2019-04-14T06:37:03.350Z,29.93
2019-04-14T06:42:27.156Z,24.03
2019-04-14T06:47:51.460Z,30.77
2019-04-14T06:53:15.802Z,35.50
2019-04-14T06:58:40.604Z,33.30
2019-04-14T07:04:05.170Z,31.03
2019-04-14T07:09:29.675Z,29.57
2019-04-14T07:14:53.575Z,33.60
2019-04-14T07:20:17.713Z,34.10
2019-04-14T07:25:41.896Z,34.03
2019-04-14T07:31:37.148Z,28.10
2019-04-14T07:37:19.531Z,30.63
2019-04-14T07:42:51.899Z,38.53
2019-04-14T07:48:23.692Z,32.63
2019-04-14T07:54:04.944Z,33.47
2019-04-14T07:59:48.180Z,35.20
2019-04-14T08:05:18.224Z,28.17
2019-04-14T08:10:42.406Z,30.13
2019-04-14T08:16:05.827Z,41.53
2019-04-14T08:21:29.552Z,32.77
2019-04-14T08:26:53.817Z,43.93
2019-04-14T08:32:17.481Z,33.33
2019-04-14T08:37:42.370Z,34.20
2019-04-14T08:43:29.013Z,36.03
2019-04-14T08:48:56.844Z,32.73
2019-04-14T08:54:24.794Z,29.93
2019-04-14T09:00:07.343Z,26.47
2019-04-14T09:06:05.241Z,30.40
2019-04-14T09:11:36.704Z,34.23
2019-04-14T09:17:00.089Z,28.23
2019-04-14T09:22:24.640Z,29.37
2019-04-14T09:27:48.804Z,34.30
2019-04-14T09:33:14.503Z,33.43
2019-04-14T09:38:38.649Z,32.80
2019-04-14T09:44:03.066Z,27.00
2019-04-14T09:49:27.542Z,27.43
2019-04-14T09:54:50.929Z,29.43
2019-04-14T10:00:15.037Z,31.23
2019-04-14T10:05:38.838Z,31.87
2019-04-14T10:11:03.402Z,36.03
2019-04-14T10:16:27.716Z,30.43
2019-04-14T10:21:51.196Z,32.33
2019-04-14T10:27:14.859Z,28.87
2019-04-14T10:32:39.235Z,30.40
2019-04-14T10:38:03.733Z,29.13
2019-04-14T10:43:27.118Z,40.70
2019-04-14T10:48:50.811Z,31.00
2019-04-14T10:54:14.523Z,31.23
2019-04-14T10:59:38.723Z,35.00
2019-04-14T11:05:02.138Z,27.30
2019-04-14T11:10:26.216Z,28.50
2019-04-14T11:15:50.780Z,29.33
2019-04-14T11:21:15.438Z,25.73
2019-04-14T11:26:39.549Z,26.17
2019-04-14T11:32:20.485Z,27.97
2019-04-14T11:38:10.145Z,27.10
2019-04-14T11:43:34.702Z,27.00
2019-04-14T11:48:58.541Z,29.00
2019-04-14T11:54:21.888Z,28.37
2019-04-14T11:59:55.033Z,26.80
2019-04-14T12:05:30.205Z,24.97
2019-04-14T12:10:54.370Z,25.10
2019-04-14T12:16:17.985Z,26.87
2019-04-14T12:21:42.102Z,25.80
2019-04-14T12:27:05.480Z,26.87
2019-04-14T12:32:30.602Z,23.50
2019-04-14T12:37:55.249Z,24.97
2019-04-14T12:43:32.811Z,22.93
2019-04-14T12:49:18.834Z,25.80
2019-04-14T12:54:43.316Z,26.93
2019-04-14T13:00:15.063Z,24.67
2019-04-14T13:05:38.421Z,23.77
2019-04-14T13:11:03.335Z,26.03
2019-04-14T13:16:27.860Z,24.10
2019-04-14T13:21:53.117Z,24.83
2019-04-14T13:27:16.426Z,23.23
2019-04-14T13:32:39.854Z,20.40
2019-04-14T13:38:04.642Z,20.97
2019-04-14T13:43:27.972Z,23.63
2019-04-14T13:48:52.135Z,18.07
2019-04-14T13:54:16.057Z,18.57
2019-04-14T13:59:40.627Z,17.60
2019-04-14T14:05:05.015Z,16.47
2019-04-14T14:10:29.309Z,17.47
2019-04-14T14:16:07.022Z,20.00
2019-04-14T14:21:40.865Z,19.87
2019-04-14T14:27:05.996Z,18.23
2019-04-14T14:32:35.447Z,17.00
2019-04-14T14:37:59.861Z,18.40
2019-04-14T14:43:23.353Z,19.10
2019-04-14T14:48:54.796Z,19.50
2019-04-14T14:54:18.185Z,20.60
2019-04-14T14:59:41.975Z,17.17
2019-04-14T15:05:05.781Z,21.07
2019-04-14T15:10:30.134Z,26.60
2019-04-14T15:15:55.283Z,17.70
2019-04-14T15:21:19.487Z,20.30
2019-04-14T15:26:42.918Z,16.93
2019-04-14T15:32:07.224Z,40.07
2019-04-14T15:37:31.586Z,24.97
2019-04-14T15:42:55.834Z,19.97
2019-04-14T15:48:20.055Z,17.93
2019-04-14T15:53:43.842Z,19.43
2019-04-14T15:59:13.886Z,21.80
2019-04-14T16:05:02.151Z,17.87
2019-04-14T16:10:40.887Z,19.37
2019-04-14T16:16:24.172Z,22.30
2019-04-14T16:21:47.649Z,19.87
2019-04-14T16:27:35.252Z,22.50
2019-04-14T16:33:06.769Z,20.87
2019-04-14T16:38:30.842Z,26.53
2019-04-14T16:43:54.755Z,21.00
2019-04-14T16:49:19.234Z,20.97
2019-04-14T16:54:50.148Z,20.10
2019-04-14T17:00:21.598Z,26.40
2019-04-14T17:05:44.565Z,19.57
2019-04-14T17:11:08.030Z,22.77
2019-04-14T17:16:39.448Z,25.00
2019-04-14T17:22:11.745Z,61.17
2019-04-14T17:27:58.168Z,31.77
2019-04-14T17:33:31.437Z,23.37
2019-04-14T17:39:18.382Z,21.47
2019-04-14T17:44:47.462Z,19.97
2019-04-14T17:50:40.173Z,19.77
2019-04-14T17:56:09.980Z,21.60
2019-04-14T18:02:05.790Z,21.60
2019-04-14T18:07:44.707Z,28.27
2019-04-14T18:13:33.303Z,24.53
2019-04-14T18:19:27.676Z,33.53
2019-04-14T18:24:52.121Z,23.43
2019-04-14T18:30:26.256Z,32.80
2019-04-14T18:35:57.905Z,23.97
2019-04-14T18:41:25.440Z,33.83
2019-04-14T18:47:04.746Z,26.47
2019-04-14T18:52:36.896Z,26.37
2019-04-14T18:58:22.083Z,28.73
2019-04-14T19:03:46.192Z,23.80
2019-04-14T19:09:10.361Z,38.07
2019-04-14T19:14:38.370Z,22.97
2019-04-14T19:20:02.779Z,24.40
2019-04-14T19:25:27.438Z,31.27
2019-04-14T19:30:51.895Z,20.60
2019-04-14T19:36:16.216Z,21.43
2019-04-14T19:41:41.047Z,21.57
2019-04-14T19:47:05.537Z,22.33
2019-04-14T19:52:29.996Z,21.40
2019-04-14T19:57:54.490Z,19.87
2019-04-14T20:03:19.034Z,17.40
2019-04-14T20:08:43.278Z,17.47
2019-04-14T20:14:07.834Z,18.07
2019-04-14T20:19:56.125Z,19.67
2019-04-14T20:25:37.503Z,18.50
2019-04-14T20:31:15.073Z,16.67
2019-04-14T20:36:39.769Z,19.60
2019-04-14T20:42:05.186Z,19.30
2019-04-14T20:47:29.409Z,31.07
2019-04-14T20:52:53.724Z,25.23
2019-04-14T20:58:17.311Z,27.30
2019-04-14T21:03:49.179Z,22.13
2019-04-14T21:09:29.879Z,21.93
2019-04-14T21:15:00.937Z,23.53
2019-04-14T21:20:52.456Z,20.10
2019-04-14T21:26:47.843Z,16.10
2019-04-14T21:32:16.475Z,22.97
2019-04-14T21:37:56.650Z,19.60
2019-04-14T21:43:21.299Z,20.70
2019-04-14T21:48:46.752Z,19.13
2019-04-14T21:54:10.991Z,16.43
2019-04-14T21:59:40.151Z,16.33
2019-04-14T22:05:15.466Z,22.43
2019-04-14T22:10:51.958Z,19.63
2019-04-14T22:16:16.483Z,20.83
2019-04-14T22:21:41.451Z,18.73
2019-04-14T22:27:05.973Z,17.30
2019-04-14T22:32:30.143Z,17.57
2019-04-14T22:37:54.854Z,15.97
2019-04-14T22:43:19.104Z,19.93
2019-04-14T22:48:43.277Z,16.47
2019-04-14T22:54:08.772Z,15.73
2019-04-14T22:59:33.220Z,16.50
2019-04-14T23:05:12.506Z,18.90
2019-04-14T23:10:54.316Z,22.33
2019-04-14T23:16:29.062Z,13.97
2019-04-14T23:22:04.495Z,18.00
2019-04-14T23:27:28.584Z,16.80
2019-04-14T23:32:51.964Z,16.47
2019-04-14T23:38:16.545Z,16.10
2019-04-14T23:43:40.771Z,19.27
2019-04-14T23:49:05.283Z,13.70
2019-04-14T23:54:29.088Z,15.67
2019-04-14T23:59:52.818Z,17.03
